sensor_id;sensor_type;location;lat;lon;timestamp;P1;durP1;ratioP1;P2;durP2;ratioP2
2049;SDS011;8478;49.208;8.806;2023-10-08T00:01:21;5.90;;;5.40;;
2049;SDS011;8478;49.208;8.806;2023-10-08T00:03:47;6.40;;;5.80;;
2049;SDS011;8478;49.208;8.806;2023-10-08T00:06:14;6.50;;;5.90;;
2049;SDS011;8478;49.208;8.806;2023-10-08T00:08:40;5.57;;;5.07;;
2049;SDS011;8478;49.208;8.806;2023-10-08T00:11:06;5.93;;;5.33;;
2049;SDS011;8478;49.208;8.806;2023-10-08T00:13:35;5.63;;;5.17;;
2049;SDS011;8478;49.208;8.806;2023-10-08T00:16:10;5.53;;;4.80;;
2049;SDS011;8478;49.208;8.806;2023-10-08T00:18:37;6.07;;;5.57;;
2049;SDS011;8478;49.208;8.806;2023-10-08T00:21:05;6.10;;;5.50;;
2049;SDS011;8478;49.208;8.806;2023-10-08T00:23:37;5.87;;;5.37;;
2049;SDS011;8478;49.208;8.806;2023-10-08T00:26:10;6.40;;;5.90;;
2049;SDS011;8478;49.208;8.806;2023-10-08T00:28:37;6.40;;;4.80;;
2049;SDS011;8478;49.208;8.806;2023-10-08T00:31:05;6.00;;;5.40;;
2049;SDS011;8478;49.208;8.806;2023-10-08T00:33:37;6.20;;;5.50;;
2049;SDS011;8478;49.208;8.806;2023-10-08T00:36:03;6.17;;;5.53;;
2049;SDS011;8478;49.208;8.806;2023-10-08T00:38:45;8.10;;;4.87;;
2049;SDS011;8478;49.208;8.806;2023-10-08T00:41:24;6.27;;;5.40;;
2049;SDS011;8478;49.208;8.806;2023-10-08T00:43:53;5.83;;;5.13;;
2049;SDS011;8478;49.208;8.806;2023-10-08T00:46:24;5.50;;;5.00;;
2049;SDS011;8478;49.208;8.806;2023-10-08T00:49:07;5.90;;;5.40;;
2049;SDS011;8478;49.208;8.806;2023-10-08T00:52:12;5.07;;;4.53;;
2049;SDS011;8478;49.208;8.806;2023-10-08T00:54:39;5.43;;;5.00;;
2049;SDS011;8478;49.208;8.806;2023-10-08T00:57:31;5.93;;;5.40;;
2049;SDS011;8478;49.208;8.806;2023-10-08T01:00:01;5.67;;;5.17;;
2049;SDS011;8478;49.208;8.806;2023-10-08T01:02:29;6.10;;;5.07;;
2049;SDS011;8478;49.208;8.806;2023-10-08T01:05:11;6.17;;;5.57;;
2049;SDS011;8478;49.208;8.806;2023-10-08T01:07:40;5.93;;;5.43;;
2049;SDS011;8478;49.208;8.806;2023-10-08T01:10:10;5.23;;;4.60;;
2049;SDS011;8478;49.208;8.806;2023-10-08T01:12:38;5.57;;;5.07;;
2049;SDS011;8478;49.208;8.806;2023-10-08T01:15:20;5.60;;;5.10;;
2049;SDS011;8478;49.208;8.806;2023-10-08T01:17:53;7.10;;;5.43;;
2049;SDS011;8478;49.208;8.806;2023-10-08T01:20:26;7.57;;;6.87;;
2049;SDS011;8478;49.208;8.806;2023-10-08T01:25:34;6.60;;;5.73;;
2049;SDS011;8478;49.208;8.806;2023-10-08T01:28:01;8.80;;;5.47;;
2049;SDS011;8478;49.208;8.806;2023-10-08T01:30:33;5.60;;;5.10;;
2049;SDS011;8478;49.208;8.806;2023-10-08T01:33:01;6.13;;;5.43;;
2049;SDS011;8478;49.208;8.806;2023-10-08T01:35:28;5.57;;;5.07;;
2049;SDS011;8478;49.208;8.806;2023-10-08T01:37:56;6.07;;;5.00;;
2049;SDS011;8478;49.208;8.806;2023-10-08T01:40:24;5.87;;;5.37;;
2049;SDS011;8478;49.208;8.806;2023-10-08T01:42:50;6.37;;;5.87;;
2049;SDS011;8478;49.208;8.806;2023-10-08T01:45:17;8.40;;;5.80;;
2049;SDS011;8478;49.208;8.806;2023-10-08T01:47:43;6.00;;;5.50;;
2049;SDS011;8478;49.208;8.806;2023-10-08T01:50:09;5.60;;;5.10;;
2049;SDS011;8478;49.208;8.806;2023-10-08T01:52:49;6.67;;;6.10;;
2049;SDS011;8478;49.208;8.806;2023-10-08T01:55:16;5.73;;;5.20;;
2049;SDS011;8478;49.208;8.806;2023-10-08T01:57:44;6.27;;;5.77;;
2049;SDS011;8478;49.208;8.806;2023-10-08T02:00:11;6.93;;;5.60;;
2049;SDS011;8478;49.208;8.806;2023-10-08T02:02:37;6.37;;;5.87;;
2049;SDS011;8478;49.208;8.806;2023-10-08T02:05:05;7.37;;;6.20;;
2049;SDS011;8478;49.208;8.806;2023-10-08T02:07:32;6.47;;;5.87;;
2049;SDS011;8478;49.208;8.806;2023-10-08T02:09:59;6.50;;;5.93;;
2049;SDS011;8478;49.208;8.806;2023-10-08T02:12:24;6.87;;;5.97;;
2049;SDS011;8478;49.208;8.806;2023-10-08T02:14:50;6.27;;;5.60;;
2049;SDS011;8478;49.208;8.806;2023-10-08T02:17:16;6.37;;;4.80;;
2049;SDS011;8478;49.208;8.806;2023-10-08T02:19:42;6.23;;;5.77;;
2049;SDS011;8478;49.208;8.806;2023-10-08T02:22:08;6.33;;;5.73;;
2049;SDS011;8478;49.208;8.806;2023-10-08T02:24:37;6.17;;;5.53;;
2049;SDS011;8478;49.208;8.806;2023-10-08T02:27:05;6.23;;;5.63;;
2049;SDS011;8478;49.208;8.806;2023-10-08T02:29:31;6.67;;;5.97;;
2049;SDS011;8478;49.208;8.806;2023-10-08T02:31:58;5.90;;;5.40;;
2049;SDS011;8478;49.208;8.806;2023-10-08T02:34:24;5.90;;;5.30;;
2049;SDS011;8478;49.208;8.806;2023-10-08T02:36:50;6.23;;;5.63;;
2049;SDS011;8478;49.208;8.806;2023-10-08T02:39:16;6.47;;;5.87;;
2049;SDS011;8478;49.208;8.806;2023-10-08T02:41:46;6.97;;;6.07;;
2049;SDS011;8478;49.208;8.806;2023-10-08T02:44:14;6.40;;;5.80;;
2049;SDS011;8478;49.208;8.806;2023-10-08T02:46:41;6.47;;;5.87;;
2049;SDS011;8478;49.208;8.806;2023-10-08T02:49:10;6.00;;;5.50;;
2049;SDS011;8478;49.208;8.806;2023-10-08T02:51:37;6.17;;;5.63;;
2049;SDS011;8478;49.208;8.806;2023-10-08T02:54:09;6.70;;;6.10;;
2049;SDS011;8478;49.208;8.806;2023-10-08T02:56:46;6.30;;;5.70;;
2049;SDS011;8478;49.208;8.806;2023-10-08T02:59:19;6.20;;;5.70;;
2049;SDS011;8478;49.208;8.806;2023-10-08T03:01:49;6.40;;;5.90;;
2049;SDS011;8478;49.208;8.806;2023-10-08T03:04:17;6.23;;;5.70;;
2049;SDS011;8478;49.208;8.806;2023-10-08T03:06:47;6.70;;;6.20;;
2049;SDS011;8478;49.208;8.806;2023-10-08T03:09:19;6.13;;;5.63;;
2049;SDS011;8478;49.208;8.806;2023-10-08T03:11:48;7.07;;;6.07;;
2049;SDS011;8478;49.208;8.806;2023-10-08T03:14:15;5.73;;;5.10;;
2049;SDS011;8478;49.208;8.806;2023-10-08T03:16:50;6.80;;;6.10;;
2049;SDS011;8478;49.208;8.806;2023-10-08T03:19:18;6.10;;;5.60;;
2049;SDS011;8478;49.208;8.806;2023-10-08T03:21:48;5.03;;;4.63;;
2049;SDS011;8478;49.208;8.806;2023-10-08T03:24:21;5.83;;;5.33;;
2049;SDS011;8478;49.208;8.806;2023-10-08T03:27:03;6.70;;;5.80;;
2049;SDS011;8478;49.208;8.806;2023-10-08T03:29:37;6.23;;;5.63;;
2049;SDS011;8478;49.208;8.806;2023-10-08T03:32:10;6.23;;;5.63;;
2049;SDS011;8478;49.208;8.806;2023-10-08T03:34:46;6.53;;;5.80;;
2049;SDS011;8478;49.208;8.806;2023-10-08T03:37:17;6.17;;;5.67;;
2049;SDS011;8478;49.208;8.806;2023-10-08T03:39:48;6.43;;;5.70;;
2049;SDS011;8478;49.208;8.806;2023-10-08T03:42:34;6.60;;;5.07;;
2049;SDS011;8478;49.208;8.806;2023-10-08T03:45:05;6.27;;;5.67;;
2049;SDS011;8478;49.208;8.806;2023-10-08T03:47:41;6.40;;;5.80;;
2049;SDS011;8478;49.208;8.806;2023-10-08T03:50:11;6.43;;;5.93;;
2049;SDS011;8478;49.208;8.806;2023-10-08T03:52:41;6.60;;;6.00;;
2049;SDS011;8478;49.208;8.806;2023-10-08T03:55:09;5.87;;;5.37;;
2049;SDS011;8478;49.208;8.806;2023-10-08T03:57:43;6.00;;;5.50;;
2049;SDS011;8478;49.208;8.806;2023-10-08T04:00:13;6.10;;;5.60;;
2049;SDS011;8478;49.208;8.806;2023-10-08T04:02:47;6.30;;;5.70;;
2049;SDS011;8478;49.208;8.806;2023-10-08T04:05:25;7.53;;;6.07;;
2049;SDS011;8478;49.208;8.806;2023-10-08T04:08:06;5.47;;;4.97;;
2049;SDS011;8478;49.208;8.806;2023-10-08T04:10:42;7.63;;;5.77;;
2049;SDS011;8478;49.208;8.806;2023-10-08T04:13:08;5.43;;;4.93;;
2049;SDS011;8478;49.208;8.806;2023-10-08T04:15:35;5.93;;;5.37;;
2049;SDS011;8478;49.208;8.806;2023-10-08T04:18:06;5.30;;;4.90;;
2049;SDS011;8478;49.208;8.806;2023-10-08T04:20:32;5.87;;;5.37;;
2049;SDS011;8478;49.208;8.806;2023-10-08T04:23:00;6.00;;;5.37;;
2049;SDS011;8478;49.208;8.806;2023-10-08T04:25:30;5.67;;;5.10;;
2049;SDS011;8478;49.208;8.806;2023-10-08T04:27:57;6.70;;;6.00;;
2049;SDS011;8478;49.208;8.806;2023-10-08T04:30:33;6.37;;;5.77;;
2049;SDS011;8478;49.208;8.806;2023-10-08T04:33:02;6.87;;;6.20;;
2049;SDS011;8478;49.208;8.806;2023-10-08T04:35:34;5.93;;;5.40;;
2049;SDS011;8478;49.208;8.806;2023-10-08T04:38:27;5.80;;;5.20;;
2049;SDS011;8478;49.208;8.806;2023-10-08T04:41:01;6.10;;;5.20;;
2049;SDS011;8478;49.208;8.806;2023-10-08T04:43:33;7.70;;;6.50;;
2049;SDS011;8478;49.208;8.806;2023-10-08T04:46:03;6.00;;;5.50;;
2049;SDS011;8478;49.208;8.806;2023-10-08T04:48:30;5.60;;;5.20;;
2049;SDS011;8478;49.208;8.806;2023-10-08T04:51:01;6.10;;;5.50;;
2049;SDS011;8478;49.208;8.806;2023-10-08T04:53:29;5.97;;;5.47;;
2049;SDS011;8478;49.208;8.806;2023-10-08T04:56:03;5.67;;;5.10;;
2049;SDS011;8478;49.208;8.806;2023-10-08T04:58:36;6.33;;;5.87;;
2049;SDS011;8478;49.208;8.806;2023-10-08T05:01:05;5.87;;;5.27;;
2049;SDS011;8478;49.208;8.806;2023-10-08T05:03:57;6.53;;;5.93;;
2049;SDS011;8478;49.208;8.806;2023-10-08T05:06:23;5.77;;;5.27;;
2049;SDS011;8478;49.208;8.806;2023-10-08T05:09:13;6.60;;;6.10;;
2049;SDS011;8478;49.208;8.806;2023-10-08T05:11:48;5.97;;;5.47;;
2049;SDS011;8478;49.208;8.806;2023-10-08T05:14:15;5.90;;;5.40;;
2049;SDS011;8478;49.208;8.806;2023-10-08T05:17:00;5.80;;;5.30;;
2049;SDS011;8478;49.208;8.806;2023-10-08T05:19:34;6.00;;;5.50;;
2049;SDS011;8478;49.208;8.806;2023-10-08T05:22:10;6.40;;;5.90;;
2049;SDS011;8478;49.208;8.806;2023-10-08T05:24:46;7.07;;;6.53;;
2049;SDS011;8478;49.208;8.806;2023-10-08T05:27:34;5.97;;;5.47;;
2049;SDS011;8478;49.208;8.806;2023-10-08T05:30:14;6.17;;;5.57;;
2049;SDS011;8478;49.208;8.806;2023-10-08T05:32:41;6.13;;;5.63;;
2049;SDS011;8478;49.208;8.806;2023-10-08T05:35:31;6.67;;;6.07;;
2049;SDS011;8478;49.208;8.806;2023-10-08T05:38:07;6.33;;;5.73;;
2049;SDS011;8478;49.208;8.806;2023-10-08T05:40:44;5.67;;;5.13;;
2049;SDS011;8478;49.208;8.806;2023-10-08T05:43:33;5.87;;;5.43;;
2049;SDS011;8478;49.208;8.806;2023-10-08T05:46:15;6.40;;;5.90;;
2049;SDS011;8478;49.208;8.806;2023-10-08T05:48:53;6.27;;;5.67;;
2049;SDS011;8478;49.208;8.806;2023-10-08T05:51:36;5.38;;;4.85;;
2049;SDS011;8478;49.208;8.806;2023-10-08T05:54:18;6.23;;;5.57;;
2049;SDS011;8478;49.208;8.806;2023-10-08T05:56:55;7.23;;;6.00;;
2049;SDS011;8478;49.208;8.806;2023-10-08T05:59:35;6.27;;;5.63;;
2049;SDS011;8478;49.208;8.806;2023-10-08T06:02:21;6.63;;;6.13;;
2049;SDS011;8478;49.208;8.806;2023-10-08T06:05:09;6.00;;;5.40;;
2049;SDS011;8478;49.208;8.806;2023-10-08T06:12:56;6.47;;;5.97;;
2049;SDS011;8478;49.208;8.806;2023-10-08T06:15:35;6.00;;;5.50;;
2049;SDS011;8478;49.208;8.806;2023-10-08T06:18:12;6.77;;;6.07;;
2049;SDS011;8478;49.208;8.806;2023-10-08T06:20:40;6.10;;;5.60;;
2049;SDS011;8478;49.208;8.806;2023-10-08T06:23:13;6.63;;;6.03;;
2049;SDS011;8478;49.208;8.806;2023-10-08T06:25:43;5.20;;;4.70;;
2049;SDS011;8478;49.208;8.806;2023-10-08T06:28:15;7.10;;;6.60;;
2049;SDS011;8478;49.208;8.806;2023-10-08T06:30:45;6.37;;;5.80;;
2049;SDS011;8478;49.208;8.806;2023-10-08T06:33:11;6.17;;;5.70;;
2049;SDS011;8478;49.208;8.806;2023-10-08T06:35:36;5.93;;;5.33;;
2049;SDS011;8478;49.208;8.806;2023-10-08T06:38:02;7.30;;;6.60;;
2049;SDS011;8478;49.208;8.806;2023-10-08T06:40:40;7.03;;;6.40;;
2049;SDS011;8478;49.208;8.806;2023-10-08T06:43:07;7.60;;;6.97;;
2049;SDS011;8478;49.208;8.806;2023-10-08T06:45:51;6.47;;;5.97;;
2049;SDS011;8478;49.208;8.806;2023-10-08T06:48:18;7.10;;;6.50;;
2049;SDS011;8478;49.208;8.806;2023-10-08T06:50:54;6.50;;;5.90;;
2049;SDS011;8478;49.208;8.806;2023-10-08T06:53:23;6.40;;;5.90;;
2049;SDS011;8478;49.208;8.806;2023-10-08T06:55:50;7.07;;;5.70;;
2049;SDS011;8478;49.208;8.806;2023-10-08T06:58:24;7.00;;;6.30;;
2049;SDS011;8478;49.208;8.806;2023-10-08T07:00:50;6.13;;;5.63;;
2049;SDS011;8478;49.208;8.806;2023-10-08T07:03:17;6.87;;;6.27;;
2049;SDS011;8478;49.208;8.806;2023-10-08T07:05:47;5.77;;;5.27;;
2049;SDS011;8478;49.208;8.806;2023-10-08T07:08:30;6.90;;;6.30;;
2049;SDS011;8478;49.208;8.806;2023-10-08T07:10:57;6.93;;;6.33;;
2049;SDS011;8478;49.208;8.806;2023-10-08T07:13:25;6.50;;;6.00;;
2049;SDS011;8478;49.208;8.806;2023-10-08T07:15:54;6.77;;;5.73;;
2049;SDS011;8478;49.208;8.806;2023-10-08T07:18:21;6.53;;;5.93;;
2049;SDS011;8478;49.208;8.806;2023-10-08T07:20:56;6.40;;;5.80;;
2049;SDS011;8478;49.208;8.806;2023-10-08T07:23:26;6.00;;;5.50;;
2049;SDS011;8478;49.208;8.806;2023-10-08T07:28:25;6.77;;;6.23;;
2049;SDS011;8478;49.208;8.806;2023-10-08T07:30:51;7.60;;;6.90;;
2049;SDS011;8478;49.208;8.806;2023-10-08T07:33:17;6.20;;;5.70;;
2049;SDS011;8478;49.208;8.806;2023-10-08T07:35:47;6.70;;;6.10;;
2049;SDS011;8478;49.208;8.806;2023-10-08T07:38:22;5.60;;;5.20;;
2049;SDS011;8478;49.208;8.806;2023-10-08T07:40:52;6.50;;;5.90;;
2049;SDS011;8478;49.208;8.806;2023-10-08T07:43:20;5.50;;;5.00;;
2049;SDS011;8478;49.208;8.806;2023-10-08T07:45:46;6.33;;;5.77;;
2049;SDS011;8478;49.208;8.806;2023-10-08T07:48:12;6.87;;;6.20;;
2049;SDS011;8478;49.208;8.806;2023-10-08T07:50:44;7.17;;;6.60;;
2049;SDS011;8478;49.208;8.806;2023-10-08T07:53:11;6.10;;;5.50;;
2049;SDS011;8478;49.208;8.806;2023-10-08T07:55:46;6.00;;;5.50;;
2049;SDS011;8478;49.208;8.806;2023-10-08T07:58:13;5.60;;;5.10;;
2049;SDS011;8478;49.208;8.806;2023-10-08T08:00:40;6.10;;;5.63;;
2049;SDS011;8478;49.208;8.806;2023-10-08T08:03:06;6.60;;;6.00;;
2049;SDS011;8478;49.208;8.806;2023-10-08T08:05:32;5.77;;;5.17;;
2049;SDS011;8478;49.208;8.806;2023-10-08T08:07:58;6.67;;;6.17;;
2049;SDS011;8478;49.208;8.806;2023-10-08T08:10:30;5.88;;;5.28;;
2049;SDS011;8478;49.208;8.806;2023-10-08T08:13:03;6.83;;;5.70;;
2049;SDS011;8478;49.208;8.806;2023-10-08T08:15:31;6.60;;;6.00;;
2049;SDS011;8478;49.208;8.806;2023-10-08T08:17:58;6.17;;;5.67;;
2049;SDS011;8478;49.208;8.806;2023-10-08T08:20:25;5.83;;;5.30;;
2049;SDS011;8478;49.208;8.806;2023-10-08T08:23:03;6.47;;;5.87;;
2049;SDS011;8478;49.208;8.806;2023-10-08T08:25:36;6.97;;;6.27;;
2049;SDS011;8478;49.208;8.806;2023-10-08T08:28:10;6.25;;;5.45;;
2049;SDS011;8478;49.208;8.806;2023-10-08T08:30:42;6.47;;;5.97;;
2049;SDS011;8478;49.208;8.806;2023-10-08T08:33:12;6.90;;;6.20;;
2049;SDS011;8478;49.208;8.806;2023-10-08T08:35:38;6.70;;;6.20;;
2049;SDS011;8478;49.208;8.806;2023-10-08T08:38:04;5.67;;;5.07;;
2049;SDS011;8478;49.208;8.806;2023-10-08T08:40:31;6.10;;;5.57;;
2049;SDS011;8478;49.208;8.806;2023-10-08T08:42:57;6.87;;;6.27;;
2049;SDS011;8478;49.208;8.806;2023-10-08T08:45:27;6.40;;;5.77;;
2049;SDS011;8478;49.208;8.806;2023-10-08T08:47:56;6.93;;;6.27;;
2049;SDS011;8478;49.208;8.806;2023-10-08T08:50:22;6.73;;;6.13;;
2049;SDS011;8478;49.208;8.806;2023-10-08T08:52:48;6.77;;;6.17;;
2049;SDS011;8478;49.208;8.806;2023-10-08T08:55:14;6.20;;;5.70;;
2049;SDS011;8478;49.208;8.806;2023-10-08T08:57:41;6.47;;;5.97;;
2049;SDS011;8478;49.208;8.806;2023-10-08T09:00:09;7.17;;;6.40;;
2049;SDS011;8478;49.208;8.806;2023-10-08T09:02:37;6.60;;;6.00;;
2049;SDS011;8478;49.208;8.806;2023-10-08T09:05:03;6.23;;;5.30;;
2049;SDS011;8478;49.208;8.806;2023-10-08T09:07:59;7.60;;;6.90;;
2049;SDS011;8478;49.208;8.806;2023-10-08T09:10:30;7.07;;;6.47;;
2049;SDS011;8478;49.208;8.806;2023-10-08T09:13:02;7.27;;;6.57;;
2049;SDS011;8478;49.208;8.806;2023-10-08T09:15:29;5.97;;;5.43;;
2049;SDS011;8478;49.208;8.806;2023-10-08T09:17:57;6.63;;;6.03;;
2049;SDS011;8478;49.208;8.806;2023-10-08T09:20:27;6.30;;;5.30;;
2049;SDS011;8478;49.208;8.806;2023-10-08T09:23:08;6.00;;;5.40;;
2049;SDS011;8478;49.208;8.806;2023-10-08T09:25:41;6.23;;;5.73;;
2049;SDS011;8478;49.208;8.806;2023-10-08T09:28:07;6.30;;;5.80;;
2049;SDS011;8478;49.208;8.806;2023-10-08T09:30:36;5.90;;;5.40;;
2049;SDS011;8478;49.208;8.806;2023-10-08T09:33:05;7.13;;;6.43;;
2049;SDS011;8478;49.208;8.806;2023-10-08T09:35:32;7.17;;;6.20;;
2049;SDS011;8478;49.208;8.806;2023-10-08T09:38:05;5.43;;;5.03;;
2049;SDS011;8478;49.208;8.806;2023-10-08T09:40:41;6.63;;;5.90;;
2049;SDS011;8478;49.208;8.806;2023-10-08T09:43:12;5.93;;;5.33;;
2049;SDS011;8478;49.208;8.806;2023-10-08T09:45:40;7.23;;;6.53;;
2049;SDS011;8478;49.208;8.806;2023-10-08T09:48:11;6.20;;;5.60;;
2049;SDS011;8478;49.208;8.806;2023-10-08T09:50:41;6.93;;;6.23;;
2049;SDS011;8478;49.208;8.806;2023-10-08T09:53:08;5.70;;;5.20;;
2049;SDS011;8478;49.208;8.806;2023-10-08T09:55:57;7.10;;;5.83;;
2049;SDS011;8478;49.208;8.806;2023-10-08T09:58:23;6.60;;;6.00;;
2049;SDS011;8478;49.208;8.806;2023-10-08T10:00:54;6.57;;;5.97;;
2049;SDS011;8478;49.208;8.806;2023-10-08T10:03:21;5.97;;;5.37;;
2049;SDS011;8478;49.208;8.806;2023-10-08T10:05:48;5.77;;;5.27;;
2049;SDS011;8478;49.208;8.806;2023-10-08T10:08:18;7.40;;;6.70;;
2049;SDS011;8478;49.208;8.806;2023-10-08T10:10:45;6.37;;;5.63;;
2049;SDS011;8478;49.208;8.806;2023-10-08T10:13:13;7.10;;;6.50;;
2049;SDS011;8478;49.208;8.806;2023-10-08T10:15:44;5.80;;;5.30;;
2049;SDS011;8478;49.208;8.806;2023-10-08T10:18:13;7.03;;;6.30;;
2049;SDS011;8478;49.208;8.806;2023-10-08T10:20:50;6.50;;;6.00;;
2049;SDS011;8478;49.208;8.806;2023-10-08T10:23:38;7.07;;;6.07;;
2049;SDS011;8478;49.208;8.806;2023-10-08T10:31:37;6.17;;;5.60;;
2049;SDS011;8478;49.208;8.806;2023-10-08T10:34:06;8.20;;;6.50;;
2049;SDS011;8478;49.208;8.806;2023-10-08T10:36:36;7.33;;;5.70;;
2049;SDS011;8478;49.208;8.806;2023-10-08T10:39:04;6.67;;;5.70;;
2049;SDS011;8478;49.208;8.806;2023-10-08T10:41:51;7.33;;;6.63;;
2049;SDS011;8478;49.208;8.806;2023-10-08T10:44:23;7.20;;;6.20;;
2049;SDS011;8478;49.208;8.806;2023-10-08T10:46:50;7.27;;;6.67;;
2049;SDS011;8478;49.208;8.806;2023-10-08T10:49:19;8.07;;;6.67;;
2049;SDS011;8478;49.208;8.806;2023-10-08T10:52:01;7.90;;;7.10;;
2049;SDS011;8478;49.208;8.806;2023-10-08T10:54:30;7.70;;;6.40;;
2049;SDS011;8478;49.208;8.806;2023-10-08T10:57:01;6.80;;;5.77;;
2049;SDS011;8478;49.208;8.806;2023-10-08T10:59:43;6.30;;;5.80;;
2049;SDS011;8478;49.208;8.806;2023-10-08T11:02:18;7.33;;;6.40;;
2049;SDS011;8478;49.208;8.806;2023-10-08T11:04:55;6.27;;;5.67;;
2049;SDS011;8478;49.208;8.806;2023-10-08T11:07:32;7.00;;;6.30;;
2049;SDS011;8478;49.208;8.806;2023-10-08T11:09:59;7.80;;;5.70;;
2049;SDS011;8478;49.208;8.806;2023-10-08T11:12:25;6.10;;;5.60;;
2049;SDS011;8478;49.208;8.806;2023-10-08T11:15:08;7.33;;;6.63;;
2049;SDS011;8478;49.208;8.806;2023-10-08T11:17:40;6.37;;;5.77;;
2049;SDS011;8478;49.208;8.806;2023-10-08T11:20:28;6.87;;;6.17;;
2049;SDS011;8478;49.208;8.806;2023-10-08T11:22:53;6.00;;;5.40;;
2049;SDS011;8478;49.208;8.806;2023-10-08T11:25:22;5.80;;;5.30;;
2049;SDS011;8478;49.208;8.806;2023-10-08T11:27:52;7.37;;;6.77;;
2049;SDS011;8478;49.208;8.806;2023-10-08T11:30:26;6.43;;;5.83;;
2049;SDS011;8478;49.208;8.806;2023-10-08T11:32:59;6.77;;;6.20;;
2049;SDS011;8478;49.208;8.806;2023-10-08T11:35:25;6.53;;;6.03;;
2049;SDS011;8478;49.208;8.806;2023-10-08T11:37:52;7.23;;;6.57;;
2049;SDS011;8478;49.208;8.806;2023-10-08T11:40:26;6.53;;;5.90;;
2049;SDS011;8478;49.208;8.806;2023-10-08T11:43:12;6.90;;;6.40;;
2049;SDS011;8478;49.208;8.806;2023-10-08T11:45:41;6.77;;;6.13;;
2049;SDS011;8478;49.208;8.806;2023-10-08T11:48:13;6.63;;;6.03;;
2049;SDS011;8478;49.208;8.806;2023-10-08T11:50:42;6.30;;;5.73;;
2049;SDS011;8478;49.208;8.806;2023-10-08T11:53:08;8.03;;;7.30;;
2049;SDS011;8478;49.208;8.806;2023-10-08T11:55:36;8.53;;;6.40;;
2049;SDS011;8478;49.208;8.806;2023-10-08T11:58:07;6.00;;;5.57;;
2049;SDS011;8478;49.208;8.806;2023-10-08T12:00:39;5.77;;;5.37;;
2049;SDS011;8478;49.208;8.806;2023-10-08T12:03:11;6.40;;;4.83;;
2049;SDS011;8478;49.208;8.806;2023-10-08T12:05:46;5.63;;;5.20;;
2049;SDS011;8478;49.208;8.806;2023-10-08T12:08:17;6.10;;;5.70;;
2049;SDS011;8478;49.208;8.806;2023-10-08T12:10:45;6.07;;;5.43;;
2049;SDS011;8478;49.208;8.806;2023-10-08T12:13:13;6.50;;;6.00;;
2049;SDS011;8478;49.208;8.806;2023-10-08T12:15:41;6.27;;;5.67;;
2049;SDS011;8478;49.208;8.806;2023-10-08T12:18:09;6.33;;;5.83;;
2049;SDS011;8478;49.208;8.806;2023-10-08T12:20:49;7.20;;;6.20;;
2049;SDS011;8478;49.208;8.806;2023-10-08T12:23:15;6.00;;;5.50;;
2049;SDS011;8478;49.208;8.806;2023-10-08T12:25:54;6.77;;;6.13;;
2049;SDS011;8478;49.208;8.806;2023-10-08T12:28:25;6.70;;;6.13;;
2049;SDS011;8478;49.208;8.806;2023-10-08T12:30:52;7.13;;;6.43;;
2049;SDS011;8478;49.208;8.806;2023-10-08T12:33:22;6.00;;;5.40;;
2049;SDS011;8478;49.208;8.806;2023-10-08T12:35:49;6.43;;;5.83;;
2049;SDS011;8478;49.208;8.806;2023-10-08T12:38:21;10.33;;;6.43;;
2049;SDS011;8478;49.208;8.806;2023-10-08T12:40:48;7.97;;;7.17;;
2049;SDS011;8478;49.208;8.806;2023-10-08T12:43:18;7.90;;;7.07;;
2049;SDS011;8478;49.208;8.806;2023-10-08T12:45:51;7.40;;;6.67;;
2049;SDS011;8478;49.208;8.806;2023-10-08T12:48:18;6.20;;;5.60;;
2049;SDS011;8478;49.208;8.806;2023-10-08T12:50:49;6.53;;;5.77;;
2049;SDS011;8478;49.208;8.806;2023-10-08T12:53:37;6.38;;;5.78;;
2049;SDS011;8478;49.208;8.806;2023-10-08T12:56:03;6.80;;;6.10;;
2049;SDS011;8478;49.208;8.806;2023-10-08T12:58:39;7.33;;;6.57;;
2049;SDS011;8478;49.208;8.806;2023-10-08T13:01:16;7.23;;;6.53;;
2049;SDS011;8478;49.208;8.806;2023-10-08T13:03:45;6.87;;;6.27;;
2049;SDS011;8478;49.208;8.806;2023-10-08T13:06:18;6.27;;;5.67;;
2049;SDS011;8478;49.208;8.806;2023-10-08T13:08:48;7.37;;;6.67;;
2049;SDS011;8478;49.208;8.806;2023-10-08T13:11:15;7.70;;;5.80;;
2049;SDS011;8478;49.208;8.806;2023-10-08T13:13:40;9.83;;;6.63;;
2049;SDS011;8478;49.208;8.806;2023-10-08T13:16:06;7.10;;;6.17;;
2049;SDS011;8478;49.208;8.806;2023-10-08T13:18:32;6.33;;;5.83;;
2049;SDS011;8478;49.208;8.806;2023-10-08T13:20:59;8.37;;;6.53;;
2049;SDS011;8478;49.208;8.806;2023-10-08T13:23:26;6.90;;;6.17;;
2049;SDS011;8478;49.208;8.806;2023-10-08T13:25:52;6.57;;;5.97;;
2049;SDS011;8478;49.208;8.806;2023-10-08T13:28:22;8.63;;;6.50;;
2049;SDS011;8478;49.208;8.806;2023-10-08T13:30:51;7.17;;;6.47;;
2049;SDS011;8478;49.208;8.806;2023-10-08T13:33:18;7.70;;;6.40;;
2049;SDS011;8478;49.208;8.806;2023-10-08T13:35:50;7.07;;;6.40;;
2049;SDS011;8478;49.208;8.806;2023-10-08T13:38:19;6.90;;;6.37;;
2049;SDS011;8478;49.208;8.806;2023-10-08T13:40:46;6.93;;;6.33;;
2049;SDS011;8478;49.208;8.806;2023-10-08T13:43:30;7.30;;;6.50;;
2049;SDS011;8478;49.208;8.806;2023-10-08T13:46:00;6.87;;;6.27;;
2049;SDS011;8478;49.208;8.806;2023-10-08T13:48:30;10.33;;;6.27;;
2049;SDS011;8478;49.208;8.806;2023-10-08T13:51:07;7.07;;;6.20;;
2049;SDS011;8478;49.208;8.806;2023-10-08T13:53:38;7.97;;;6.37;;
2049;SDS011;8478;49.208;8.806;2023-10-08T13:56:10;6.47;;;5.87;;
2049;SDS011;8478;49.208;8.806;2023-10-08T13:58:37;8.47;;;6.50;;
2049;SDS011;8478;49.208;8.806;2023-10-08T14:01:10;7.23;;;6.57;;
2049;SDS011;8478;49.208;8.806;2023-10-08T14:03:46;7.90;;;7.03;;
2049;SDS011;8478;49.208;8.806;2023-10-08T14:06:21;6.13;;;5.57;;
2049;SDS011;8478;49.208;8.806;2023-10-08T14:08:47;9.87;;;6.57;;
2049;SDS011;8478;49.208;8.806;2023-10-08T14:11:22;7.37;;;5.23;;
2049;SDS011;8478;49.208;8.806;2023-10-08T14:13:55;6.40;;;5.90;;
2049;SDS011;8478;49.208;8.806;2023-10-08T14:16:27;6.50;;;6.00;;
2049;SDS011;8478;49.208;8.806;2023-10-08T14:18:57;7.03;;;6.33;;
2049;SDS011;8478;49.208;8.806;2023-10-08T14:21:24;7.10;;;6.50;;
2049;SDS011;8478;49.208;8.806;2023-10-08T14:23:55;7.50;;;6.80;;
2049;SDS011;8478;49.208;8.806;2023-10-08T14:26:27;6.33;;;5.73;;
2049;SDS011;8478;49.208;8.806;2023-10-08T14:29:01;7.03;;;6.33;;
2049;SDS011;8478;49.208;8.806;2023-10-08T14:31:35;6.50;;;5.93;;
2049;SDS011;8478;49.208;8.806;2023-10-08T14:34:07;7.20;;;6.60;;
2049;SDS011;8478;49.208;8.806;2023-10-08T14:36:42;7.23;;;6.53;;
2049;SDS011;8478;49.208;8.806;2023-10-08T14:39:30;7.33;;;6.73;;
2049;SDS011;8478;49.208;8.806;2023-10-08T14:42:15;7.00;;;6.30;;
2049;SDS011;8478;49.208;8.806;2023-10-08T14:45:00;6.70;;;6.00;;
2049;SDS011;8478;49.208;8.806;2023-10-08T14:47:26;6.00;;;5.40;;
2049;SDS011;8478;49.208;8.806;2023-10-08T14:49:52;7.53;;;6.83;;
2049;SDS011;8478;49.208;8.806;2023-10-08T14:52:18;7.57;;;6.87;;
2049;SDS011;8478;49.208;8.806;2023-10-08T14:54:44;7.60;;;6.90;;
2049;SDS011;8478;49.208;8.806;2023-10-08T14:57:10;6.60;;;6.10;;
2049;SDS011;8478;49.208;8.806;2023-10-08T14:59:40;6.53;;;5.90;;
2049;SDS011;8478;49.208;8.806;2023-10-08T15:02:06;8.50;;;6.67;;
2049;SDS011;8478;49.208;8.806;2023-10-08T15:04:34;6.50;;;6.00;;
2049;SDS011;8478;49.208;8.806;2023-10-08T15:07:04;6.90;;;6.30;;
2049;SDS011;8478;49.208;8.806;2023-10-08T15:09:39;7.60;;;6.90;;
2049;SDS011;8478;49.208;8.806;2023-10-08T15:12:05;6.87;;;6.23;;
2049;SDS011;8478;49.208;8.806;2023-10-08T15:14:34;8.60;;;7.80;;
2049;SDS011;8478;49.208;8.806;2023-10-08T15:17:00;9.23;;;8.33;;
2049;SDS011;8478;49.208;8.806;2023-10-08T15:19:26;21.10;;;19.10;;
2049;SDS011;8478;49.208;8.806;2023-10-08T15:21:52;21.10;;;19.00;;
2049;SDS011;8478;49.208;8.806;2023-10-08T15:24:18;21.60;;;19.33;;
2049;SDS011;8478;49.208;8.806;2023-10-08T15:26:47;18.17;;;16.27;;
2049;SDS011;8478;49.208;8.806;2023-10-08T15:29:15;17.67;;;15.87;;
2049;SDS011;8478;49.208;8.806;2023-10-08T15:31:41;13.77;;;12.47;;
2049;SDS011;8478;49.208;8.806;2023-10-08T15:34:08;13.88;;;11.68;;
2049;SDS011;8478;49.208;8.806;2023-10-08T15:36:37;12.60;;;11.50;;
2049;SDS011;8478;49.208;8.806;2023-10-08T15:39:06;12.80;;;11.37;;
2049;SDS011;8478;49.208;8.806;2023-10-08T15:41:35;13.70;;;12.30;;
2049;SDS011;8478;49.208;8.806;2023-10-08T15:44:02;11.67;;;10.47;;
2049;SDS011;8478;49.208;8.806;2023-10-08T15:46:28;11.90;;;10.80;;
2049;SDS011;8478;49.208;8.806;2023-10-08T15:48:53;10.90;;;9.80;;
2049;SDS011;8478;49.208;8.806;2023-10-08T15:51:19;9.40;;;8.67;;
2049;SDS011;8478;49.208;8.806;2023-10-08T15:53:46;10.77;;;9.70;;
2049;SDS011;8478;49.208;8.806;2023-10-08T15:56:11;9.30;;;8.43;;